sensor_id;sensor_type;location;lat;lon;timestamp;temperature;humidity
37460;DHT22;23318;50.966;5.284;2022-07-29T00:00:13;17.90;99.90
37460;DHT22;23318;50.966;5.284;2022-07-29T00:02:39;17.80;99.90
37460;DHT22;23318;50.966;5.284;2022-07-29T00:05:05;18.10;99.90
37460;DHT22;23318;50.966;5.284;2022-07-29T00:07:31;18.30;99.90
37460;DHT22;23318;50.966;5.284;2022-07-29T00:09:57;18.40;99.90
37460;DHT22;23318;50.966;5.284;2022-07-29T00:12:24;18.50;99.90
37460;DHT22;23318;50.966;5.284;2022-07-29T00:14:50;18.60;99.90
37460;DHT22;23318;50.966;5.284;2022-07-29T00:17:15;18.50;99.90
37460;DHT22;23318;50.966;5.284;2022-07-29T00:19:41;18.30;99.90
37460;DHT22;23318;50.966;5.284;2022-07-29T00:22:07;18.20;99.90
37460;DHT22;23318;50.966;5.284;2022-07-29T00:24:32;18.10;99.90
37460;DHT22;23318;50.966;5.284;2022-07-29T00:26:58;18.00;99.90
37460;DHT22;23318;50.966;5.284;2022-07-29T00:29:24;17.90;99.90
37460;DHT22;23318;50.966;5.284;2022-07-29T00:31:50;17.80;99.90
37460;DHT22;23318;50.966;5.284;2022-07-29T00:34:16;17.80;99.90
37460;DHT22;23318;50.966;5.284;2022-07-29T00:36:59;17.70;99.90
37460;DHT22;23318;50.966;5.284;2022-07-29T00:39:25;17.60;99.90
37460;DHT22;23318;50.966;5.284;2022-07-29T00:41:51;17.50;99.90
37460;DHT22;23318;50.966;5.284;2022-07-29T00:44:17;17.50;99.90
37460;DHT22;23318;50.966;5.284;2022-07-29T00:46:42;17.50;99.90
37460;DHT22;23318;50.966;5.284;2022-07-29T00:49:08;17.60;99.90
37460;DHT22;23318;50.966;5.284;2022-07-29T00:51:37;17.60;99.90
37460;DHT22;23318;50.966;5.284;2022-07-29T00:54:04;17.60;99.90
37460;DHT22;23318;50.966;5.284;2022-07-29T00:56:30;17.50;99.90
37460;DHT22;23318;50.966;5.284;2022-07-29T00:58:57;17.40;99.90
37460;DHT22;23318;50.966;5.284;2022-07-29T01:01:23;17.50;99.90
37460;DHT22;23318;50.966;5.284;2022-07-29T01:03:49;17.50;99.90
37460;DHT22;23318;50.966;5.284;2022-07-29T01:06:16;17.50;99.90
37460;DHT22;23318;50.966;5.284;2022-07-29T01:08:42;17.40;99.90
37460;DHT22;23318;50.966;5.284;2022-07-29T01:11:08;17.50;99.90
37460;DHT22;23318;50.966;5.284;2022-07-29T01:13:34;17.50;99.90
37460;DHT22;23318;50.966;5.284;2022-07-29T01:16:13;17.60;99.90
37460;DHT22;23318;50.966;5.284;2022-07-29T01:18:45;17.60;99.90
37460;DHT22;23318;50.966;5.284;2022-07-29T01:21:27;17.60;99.90
37460;DHT22;23318;50.966;5.284;2022-07-29T01:26:52;17.50;99.90
37460;DHT22;23318;50.966;5.284;2022-07-29T01:29:32;17.40;99.90
37460;DHT22;23318;50.966;5.284;2022-07-29T01:32:21;17.40;99.90
37460;DHT22;23318;50.966;5.284;2022-07-29T01:37:26;18.00;99.90
37460;DHT22;23318;50.966;5.284;2022-07-29T01:39:56;18.00;99.90
37460;DHT22;23318;50.966;5.284;2022-07-29T01:48:13;17.90;99.90
37460;DHT22;23318;50.966;5.284;2022-07-29T01:51:29;17.40;99.90
37460;DHT22;23318;50.966;5.284;2022-07-29T01:53:33;17.20;99.90
37460;DHT22;23318;50.966;5.284;2022-07-29T01:56:02;17.60;99.90
37460;DHT22;23318;50.966;5.284;2022-07-29T01:58:29;17.80;99.90
37460;DHT22;23318;50.966;5.284;2022-07-29T02:00:58;17.80;99.90
37460;DHT22;23318;50.966;5.284;2022-07-29T02:03:25;17.80;99.90
37460;DHT22;23318;50.966;5.284;2022-07-29T02:05:53;18.00;99.90
37460;DHT22;23318;50.966;5.284;2022-07-29T02:08:21;18.20;99.90
37460;DHT22;23318;50.966;5.284;2022-07-29T02:10:48;18.10;99.90
37460;DHT22;23318;50.966;5.284;2022-07-29T02:13:16;18.00;99.90
37460;DHT22;23318;50.966;5.284;2022-07-29T02:15:44;18.00;99.90
37460;DHT22;23318;50.966;5.284;2022-07-29T02:18:18;17.80;99.90
37460;DHT22;23318;50.966;5.284;2022-07-29T02:20:50;17.60;99.90
37460;DHT22;23318;50.966;5.284;2022-07-29T02:23:19;17.50;99.90
37460;DHT22;23318;50.966;5.284;2022-07-29T02:25:48;17.50;99.90
37460;DHT22;23318;50.966;5.284;2022-07-29T02:28:15;17.50;99.90
37460;DHT22;23318;50.966;5.284;2022-07-29T02:30:43;17.60;99.90
37460;DHT22;23318;50.966;5.284;2022-07-29T02:33:13;17.50;99.90
37460;DHT22;23318;50.966;5.284;2022-07-29T02:35:40;17.70;99.90
37460;DHT22;23318;50.966;5.284;2022-07-29T02:38:08;17.90;99.90
37460;DHT22;23318;50.966;5.284;2022-07-29T02:40:53;17.90;99.90
37460;DHT22;23318;50.966;5.284;2022-07-29T02:43:21;17.80;99.90
37460;DHT22;23318;50.966;5.284;2022-07-29T02:45:50;17.80;99.90
37460;DHT22;23318;50.966;5.284;2022-07-29T02:48:17;17.90;99.90
37460;DHT22;23318;50.966;5.284;2022-07-29T02:50:53;17.90;99.90
37460;DHT22;23318;50.966;5.284;2022-07-29T02:53:24;17.90;99.90
37460;DHT22;23318;50.966;5.284;2022-07-29T02:55:58;17.90;99.90
37460;DHT22;23318;50.966;5.284;2022-07-29T02:58:31;17.90;99.90
37460;DHT22;23318;50.966;5.284;2022-07-29T03:01:02;18.10;99.90
37460;DHT22;23318;50.966;5.284;2022-07-29T03:03:34;18.10;99.90
37460;DHT22;23318;50.966;5.284;2022-07-29T03:06:01;18.10;99.90
37460;DHT22;23318;50.966;5.284;2022-07-29T03:08:28;18.00;99.90
37460;DHT22;23318;50.966;5.284;2022-07-29T03:10:55;18.00;99.90
37460;DHT22;23318;50.966;5.284;2022-07-29T03:13:21;18.10;99.90
37460;DHT22;23318;50.966;5.284;2022-07-29T03:15:47;17.90;99.90
37460;DHT22;23318;50.966;5.284;2022-07-29T03:18:13;17.90;99.90
37460;DHT22;23318;50.966;5.284;2022-07-29T03:20:39;18.10;99.90
37460;DHT22;23318;50.966;5.284;2022-07-29T03:23:07;18.30;99.90
37460;DHT22;23318;50.966;5.284;2022-07-29T03:25:33;18.20;99.90
37460;DHT22;23318;50.966;5.284;2022-07-29T03:27:59;18.20;99.90
37460;DHT22;23318;50.966;5.284;2022-07-29T03:30:25;18.20;99.90
37460;DHT22;23318;50.966;5.284;2022-07-29T03:32:51;18.30;99.90
37460;DHT22;23318;50.966;5.284;2022-07-29T03:35:18;17.70;99.90
37460;DHT22;23318;50.966;5.284;2022-07-29T03:37:44;17.40;99.90
37460;DHT22;23318;50.966;5.284;2022-07-29T03:40:13;17.30;99.90
37460;DHT22;23318;50.966;5.284;2022-07-29T03:42:40;17.30;99.90
37460;DHT22;23318;50.966;5.284;2022-07-29T03:45:17;17.40;99.90
37460;DHT22;23318;50.966;5.284;2022-07-29T03:47:47;17.50;99.90
37460;DHT22;23318;50.966;5.284;2022-07-29T03:50:14;17.60;99.90
37460;DHT22;23318;50.966;5.284;2022-07-29T03:52:41;17.60;99.90
37460;DHT22;23318;50.966;5.284;2022-07-29T03:55:08;17.70;99.90
37460;DHT22;23318;50.966;5.284;2022-07-29T03:57:35;17.60;99.90
37460;DHT22;23318;50.966;5.284;2022-07-29T04:00:03;17.50;99.90
37460;DHT22;23318;50.966;5.284;2022-07-29T04:02:31;17.40;99.90
37460;DHT22;23318;50.966;5.284;2022-07-29T04:04:56;17.40;99.90
37460;DHT22;23318;50.966;5.284;2022-07-29T04:07:22;17.40;99.90
37460;DHT22;23318;50.966;5.284;2022-07-29T04:09:48;17.10;99.90
37460;DHT22;23318;50.966;5.284;2022-07-29T04:12:13;17.10;99.90
37460;DHT22;23318;50.966;5.284;2022-07-29T04:14:39;16.90;99.90
37460;DHT22;23318;50.966;5.284;2022-07-29T04:17:05;17.00;99.90
37460;DHT22;23318;50.966;5.284;2022-07-29T04:19:31;17.30;99.90
37460;DHT22;23318;50.966;5.284;2022-07-29T04:21:58;17.30;99.90
37460;DHT22;23318;50.966;5.284;2022-07-29T04:24:24;17.20;99.90
37460;DHT22;23318;50.966;5.284;2022-07-29T04:26:50;17.40;99.90
37460;DHT22;23318;50.966;5.284;2022-07-29T04:29:16;17.50;99.90
37460;DHT22;23318;50.966;5.284;2022-07-29T04:31:42;17.50;99.90
37460;DHT22;23318;50.966;5.284;2022-07-29T04:34:09;17.60;99.90
37460;DHT22;23318;50.966;5.284;2022-07-29T04:36:35;17.30;99.90
37460;DHT22;23318;50.966;5.284;2022-07-29T04:39:01;17.20;99.90
37460;DHT22;23318;50.966;5.284;2022-07-29T04:41:27;17.00;99.90
37460;DHT22;23318;50.966;5.284;2022-07-29T04:43:53;16.90;99.90
37460;DHT22;23318;50.966;5.284;2022-07-29T04:46:19;17.10;99.90
37460;DHT22;23318;50.966;5.284;2022-07-29T04:48:45;17.30;99.90
37460;DHT22;23318;50.966;5.284;2022-07-29T04:51:12;17.30;99.90
37460;DHT22;23318;50.966;5.284;2022-07-29T04:53:38;17.20;99.90
37460;DHT22;23318;50.966;5.284;2022-07-29T04:56:04;17.10;99.90
37460;DHT22;23318;50.966;5.284;2022-07-29T04:58:30;16.90;99.90
37460;DHT22;23318;50.966;5.284;2022-07-29T05:00:56;16.90;99.90
37460;DHT22;23318;50.966;5.284;2022-07-29T05:03:22;16.90;99.90
37460;DHT22;23318;50.966;5.284;2022-07-29T05:05:47;17.00;99.90
37460;DHT22;23318;50.966;5.284;2022-07-29T05:08:13;16.90;99.90
37460;DHT22;23318;50.966;5.284;2022-07-29T05:10:39;16.90;99.90
37460;DHT22;23318;50.966;5.284;2022-07-29T05:13:05;16.80;99.90
37460;DHT22;23318;50.966;5.284;2022-07-29T05:15:33;16.90;99.90
37460;DHT22;23318;50.966;5.284;2022-07-29T05:17:59;16.80;99.90
37460;DHT22;23318;50.966;5.284;2022-07-29T05:20:25;16.80;99.90
37460;DHT22;23318;50.966;5.284;2022-07-29T05:22:57;16.70;99.90
37460;DHT22;23318;50.966;5.284;2022-07-29T05:25:23;16.60;99.90
37460;DHT22;23318;50.966;5.284;2022-07-29T05:27:49;16.60;99.90
37460;DHT22;23318;50.966;5.284;2022-07-29T05:30:15;16.60;99.90
37460;DHT22;23318;50.966;5.284;2022-07-29T05:32:40;16.50;99.90
37460;DHT22;23318;50.966;5.284;2022-07-29T05:35:06;16.50;99.90
37460;DHT22;23318;50.966;5.284;2022-07-29T05:37:33;16.50;99.90
37460;DHT22;23318;50.966;5.284;2022-07-29T05:39:58;16.70;99.90
37460;DHT22;23318;50.966;5.284;2022-07-29T05:42:25;16.90;99.90
37460;DHT22;23318;50.966;5.284;2022-07-29T05:44:51;17.00;99.90
37460;DHT22;23318;50.966;5.284;2022-07-29T05:47:17;16.90;99.90
37460;DHT22;23318;50.966;5.284;2022-07-29T05:49:43;16.90;99.90
37460;DHT22;23318;50.966;5.284;2022-07-29T05:52:08;17.00;99.90
37460;DHT22;23318;50.966;5.284;2022-07-29T05:54:35;17.10;99.90
37460;DHT22;23318;50.966;5.284;2022-07-29T05:57:00;17.10;99.90
37460;DHT22;23318;50.966;5.284;2022-07-29T05:59:26;17.00;99.90
37460;DHT22;23318;50.966;5.284;2022-07-29T06:01:52;17.00;99.90
37460;DHT22;23318;50.966;5.284;2022-07-29T06:04:18;16.90;99.90
37460;DHT22;23318;50.966;5.284;2022-07-29T06:06:43;17.20;99.90
37460;DHT22;23318;50.966;5.284;2022-07-29T06:09:09;17.40;99.90
37460;DHT22;23318;50.966;5.284;2022-07-29T06:11:35;17.60;99.90
37460;DHT22;23318;50.966;5.284;2022-07-29T06:14:00;17.30;99.90
37460;DHT22;23318;50.966;5.284;2022-07-29T06:16:28;17.50;99.90
37460;DHT22;23318;50.966;5.284;2022-07-29T06:18:53;17.70;99.90
37460;DHT22;23318;50.966;5.284;2022-07-29T06:21:19;17.70;99.90
37460;DHT22;23318;50.966;5.284;2022-07-29T06:23:45;17.50;99.90
37460;DHT22;23318;50.966;5.284;2022-07-29T06:26:11;17.50;99.90
37460;DHT22;23318;50.966;5.284;2022-07-29T06:28:36;17.50;99.90
37460;DHT22;23318;50.966;5.284;2022-07-29T06:31:02;17.50;99.90
37460;DHT22;23318;50.966;5.284;2022-07-29T06:33:28;17.40;99.90
37460;DHT22;23318;50.966;5.284;2022-07-29T06:35:54;17.50;99.90
37460;DHT22;23318;50.966;5.284;2022-07-29T06:38:20;17.60;99.90
37460;DHT22;23318;50.966;5.284;2022-07-29T06:40:45;17.10;99.90
37460;DHT22;23318;50.966;5.284;2022-07-29T06:43:33;17.20;99.90
37460;DHT22;23318;50.966;5.284;2022-07-29T06:46:04;17.10;99.90
37460;DHT22;23318;50.966;5.284;2022-07-29T06:48:30;16.90;99.90
37460;DHT22;23318;50.966;5.284;2022-07-29T06:50:56;17.30;99.90
37460;DHT22;23318;50.966;5.284;2022-07-29T06:53:21;17.10;99.90
37460;DHT22;23318;50.966;5.284;2022-07-29T06:55:47;17.20;99.90
37460;DHT22;23318;50.966;5.284;2022-07-29T06:58:13;17.60;99.90
37460;DHT22;23318;50.966;5.284;2022-07-29T07:00:41;18.00;99.90
37460;DHT22;23318;50.966;5.284;2022-07-29T07:03:07;18.40;99.90
37460;DHT22;23318;50.966;5.284;2022-07-29T07:05:33;18.80;99.90
37460;DHT22;23318;50.966;5.284;2022-07-29T07:07:58;19.10;99.90
37460;DHT22;23318;50.966;5.284;2022-07-29T07:10:24;19.40;99.90
37460;DHT22;23318;50.966;5.284;2022-07-29T07:12:50;19.50;99.90
37460;DHT22;23318;50.966;5.284;2022-07-29T07:15:16;19.40;99.90
37460;DHT22;23318;50.966;5.284;2022-07-29T07:17:41;19.50;99.90
37460;DHT22;23318;50.966;5.284;2022-07-29T07:20:07;19.30;99.90
37460;DHT22;23318;50.966;5.284;2022-07-29T07:22:33;19.40;99.90
37460;DHT22;23318;50.966;5.284;2022-07-29T07:24:58;19.50;99.90
37460;DHT22;23318;50.966;5.284;2022-07-29T07:27:24;19.60;99.90
37460;DHT22;23318;50.966;5.284;2022-07-29T07:29:50;19.60;99.90
37460;DHT22;23318;50.966;5.284;2022-07-29T07:32:15;19.60;99.90
37460;DHT22;23318;50.966;5.284;2022-07-29T07:34:42;19.20;99.90
37460;DHT22;23318;50.966;5.284;2022-07-29T07:37:08;19.40;99.90
37460;DHT22;23318;50.966;5.284;2022-07-29T07:39:34;19.70;99.90
37460;DHT22;23318;50.966;5.284;2022-07-29T07:42:00;19.60;99.90
37460;DHT22;23318;50.966;5.284;2022-07-29T07:44:25;19.50;99.90
37460;DHT22;23318;50.966;5.284;2022-07-29T07:46:51;19.80;99.90
37460;DHT22;23318;50.966;5.284;2022-07-29T07:49:17;19.90;99.90
37460;DHT22;23318;50.966;5.284;2022-07-29T07:51:43;20.10;99.90
37460;DHT22;23318;50.966;5.284;2022-07-29T07:54:08;20.00;99.90
37460;DHT22;23318;50.966;5.284;2022-07-29T07:56:34;19.60;99.90
37460;DHT22;23318;50.966;5.284;2022-07-29T07:59:00;20.10;99.90
37460;DHT22;23318;50.966;5.284;2022-07-29T08:01:25;20.40;99.90
37460;DHT22;23318;50.966;5.284;2022-07-29T08:03:51;20.60;99.90
37460;DHT22;23318;50.966;5.284;2022-07-29T08:06:17;20.70;99.90
37460;DHT22;23318;50.966;5.284;2022-07-29T08:08:42;20.20;99.90
37460;DHT22;23318;50.966;5.284;2022-07-29T08:11:08;20.00;99.90
37460;DHT22;23318;50.966;5.284;2022-07-29T08:13:33;20.20;99.90
37460;DHT22;23318;50.966;5.284;2022-07-29T08:15:59;20.30;99.90
37460;DHT22;23318;50.966;5.284;2022-07-29T08:18:37;20.40;99.90
37460;DHT22;23318;50.966;5.284;2022-07-29T08:21:03;20.90;99.90
37460;DHT22;23318;50.966;5.284;2022-07-29T08:23:28;21.10;99.90
37460;DHT22;23318;50.966;5.284;2022-07-29T08:26:06;20.80;99.90
37460;DHT22;23318;50.966;5.284;2022-07-29T08:28:45;20.90;99.90
37460;DHT22;23318;50.966;5.284;2022-07-29T08:31:12;21.00;99.90
37460;DHT22;23318;50.966;5.284;2022-07-29T08:33:38;21.10;99.90
37460;DHT22;23318;50.966;5.284;2022-07-29T08:36:05;20.90;99.90
37460;DHT22;23318;50.966;5.284;2022-07-29T08:38:31;21.00;99.90
37460;DHT22;23318;50.966;5.284;2022-07-29T08:40:58;20.90;99.90
37460;DHT22;23318;50.966;5.284;2022-07-29T08:43:25;21.20;99.90
37460;DHT22;23318;50.966;5.284;2022-07-29T08:45:52;21.40;99.90
37460;DHT22;23318;50.966;5.284;2022-07-29T08:48:19;21.80;99.90
37460;DHT22;23318;50.966;5.284;2022-07-29T08:50:47;22.00;99.90
37460;DHT22;23318;50.966;5.284;2022-07-29T08:53:15;22.00;99.90
37460;DHT22;23318;50.966;5.284;2022-07-29T08:55:48;22.20;99.90
37460;DHT22;23318;50.966;5.284;2022-07-29T08:58:15;22.00;99.90
37460;DHT22;23318;50.966;5.284;2022-07-29T09:00:44;21.90;99.90
37460;DHT22;23318;50.966;5.284;2022-07-29T09:03:15;22.00;99.90
37460;DHT22;23318;50.966;5.284;2022-07-29T09:05:42;21.60;99.90
37460;DHT22;23318;50.966;5.284;2022-07-29T09:08:09;22.00;99.90
37460;DHT22;23318;50.966;5.284;2022-07-29T09:10:35;22.50;99.90
37460;DHT22;23318;50.966;5.284;2022-07-29T09:13:01;22.50;99.90
37460;DHT22;23318;50.966;5.284;2022-07-29T09:15:27;22.50;99.90
37460;DHT22;23318;50.966;5.284;2022-07-29T09:17:52;22.80;99.90
37460;DHT22;23318;50.966;5.284;2022-07-29T09:20:20;22.90;99.90
37460;DHT22;23318;50.966;5.284;2022-07-29T09:22:47;23.00;99.90
37460;DHT22;23318;50.966;5.284;2022-07-29T09:28:12;22.60;99.90
37460;DHT22;23318;50.966;5.284;2022-07-29T09:31:04;23.10;99.90
37460;DHT22;23318;50.966;5.284;2022-07-29T09:33:34;23.20;99.90
37460;DHT22;23318;50.966;5.284;2022-07-29T09:36:05;23.20;99.90
37460;DHT22;23318;50.966;5.284;2022-07-29T09:38:32;23.50;99.90
37460;DHT22;23318;50.966;5.284;2022-07-29T09:41:03;23.70;99.90
37460;DHT22;23318;50.966;5.284;2022-07-29T09:43:29;24.00;99.90
37460;DHT22;23318;50.966;5.284;2022-07-29T09:45:55;24.00;99.90
37460;DHT22;23318;50.966;5.284;2022-07-29T09:48:25;24.00;99.90
37460;DHT22;23318;50.966;5.284;2022-07-29T09:50:51;24.10;99.90
37460;DHT22;23318;50.966;5.284;2022-07-29T09:53:30;24.30;99.90
37460;DHT22;23318;50.966;5.284;2022-07-29T09:55:56;24.10;99.90
37460;DHT22;23318;50.966;5.284;2022-07-29T09:58:22;24.20;99.90
37460;DHT22;23318;50.966;5.284;2022-07-29T10:00:50;24.10;99.90
37460;DHT22;23318;50.966;5.284;2022-07-29T10:03:16;24.40;99.90
37460;DHT22;23318;50.966;5.284;2022-07-29T10:05:43;24.80;99.90
37460;DHT22;23318;50.966;5.284;2022-07-29T10:08:10;24.80;99.90
37460;DHT22;23318;50.966;5.284;2022-07-29T10:10:42;24.60;99.90
37460;DHT22;23318;50.966;5.284;2022-07-29T10:13:13;24.60;99.90
37460;DHT22;23318;50.966;5.284;2022-07-29T10:15:41;24.70;99.90
37460;DHT22;23318;50.966;5.284;2022-07-29T10:18:09;25.00;99.90
37460;DHT22;23318;50.966;5.284;2022-07-29T10:20:36;25.30;99.90
37460;DHT22;23318;50.966;5.284;2022-07-29T10:23:03;25.40;99.90
37460;DHT22;23318;50.966;5.284;2022-07-29T10:25:28;25.20;99.90
37460;DHT22;23318;50.966;5.284;2022-07-29T10:27:54;25.30;99.90
37460;DHT22;23318;50.966;5.284;2022-07-29T10:30:22;25.30;99.90
37460;DHT22;23318;50.966;5.284;2022-07-29T10:36:05;25.60;99.90
37460;DHT22;23318;50.966;5.284;2022-07-29T10:38:53;25.60;99.90
37460;DHT22;23318;50.966;5.284;2022-07-29T10:44:01;26.20;99.90
37460;DHT22;23318;50.966;5.284;2022-07-29T10:46:28;26.30;99.90
37460;DHT22;23318;50.966;5.284;2022-07-29T10:49:19;26.60;99.90
37460;DHT22;23318;50.966;5.284;2022-07-29T10:59:37;28.10;96.80
37460;DHT22;23318;50.966;5.284;2022-07-29T11:05:07;32.70;92.10
37460;DHT22;23318;50.966;5.284;2022-07-29T11:07:35;34.00;90.30
37460;DHT22;23318;50.966;5.284;2022-07-29T11:15:22;34.00;83.40
37460;DHT22;23318;50.966;5.284;2022-07-29T11:20:44;34.30;84.50
37460;DHT22;23318;50.966;5.284;2022-07-29T11:23:31;34.70;83.60
37460;DHT22;23318;50.966;5.284;2022-07-29T11:26:13;35.20;83.10
37460;DHT22;23318;50.966;5.284;2022-07-29T11:28:54;35.80;83.20
37460;DHT22;23318;50.966;5.284;2022-07-29T11:31:45;33.60;83.20
37460;DHT22;23318;50.966;5.284;2022-07-29T11:34:36;32.40;84.70
37460;DHT22;23318;50.966;5.284;2022-07-29T11:39:38;34.10;83.60
37460;DHT22;23318;50.966;5.284;2022-07-29T11:45:07;31.00;86.60
37460;DHT22;23318;50.966;5.284;2022-07-29T11:47:38;31.20;87.30
37460;DHT22;23318;50.966;5.284;2022-07-29T11:50:11;32.70;82.90
37460;DHT22;23318;50.966;5.284;2022-07-29T11:52:43;34.80;81.10
37460;DHT22;23318;50.966;5.284;2022-07-29T11:55:18;36.80;77.90
37460;DHT22;23318;50.966;5.284;2022-07-29T11:57:52;37.10;75.90
37460;DHT22;23318;50.966;5.284;2022-07-29T12:00:31;37.00;74.20
37460;DHT22;23318;50.966;5.284;2022-07-29T12:02:59;37.70;73.90
37460;DHT22;23318;50.966;5.284;2022-07-29T12:08:06;37.20;70.20
37460;DHT22;23318;50.966;5.284;2022-07-29T12:10:32;36.60;70.80
37460;DHT22;23318;50.966;5.284;2022-07-29T12:12:58;34.90;71.00
37460;DHT22;23318;50.966;5.284;2022-07-29T12:15:24;34.10;72.80
37460;DHT22;23318;50.966;5.284;2022-07-29T12:17:50;36.40;71.50
37460;DHT22;23318;50.966;5.284;2022-07-29T12:20:28;37.90;70.10
37460;DHT22;23318;50.966;5.284;2022-07-29T12:22:55;39.40;68.10
37460;DHT22;23318;50.966;5.284;2022-07-29T12:25:23;38.70;66.50
37460;DHT22;23318;50.966;5.284;2022-07-29T12:28:00;36.10;68.10
37460;DHT22;23318;50.966;5.284;2022-07-29T12:30:38;32.80;70.60
37460;DHT22;23318;50.966;5.284;2022-07-29T12:33:37;31.20;72.20
37460;DHT22;23318;50.966;5.284;2022-07-29T12:36:03;31.30;73.60
37460;DHT22;23318;50.966;5.284;2022-07-29T12:38:28;33.70;71.70
37460;DHT22;23318;50.966;5.284;2022-07-29T12:40:55;35.10;69.80
37460;DHT22;23318;50.966;5.284;2022-07-29T12:43:22;38.30;67.60
37460;DHT22;23318;50.966;5.284;2022-07-29T12:45:53;38.60;66.00
37460;DHT22;23318;50.966;5.284;2022-07-29T12:48:36;38.10;65.20
37460;DHT22;23318;50.966;5.284;2022-07-29T12:51:04;38.90;64.90
37460;DHT22;23318;50.966;5.284;2022-07-29T12:53:31;39.00;65.00
37460;DHT22;23318;50.966;5.284;2022-07-29T12:55:58;37.10;65.60
37460;DHT22;23318;50.966;5.284;2022-07-29T12:58:34;36.30;66.00
37460;DHT22;23318;50.966;5.284;2022-07-29T13:01:05;34.20;68.20
37460;DHT22;23318;50.966;5.284;2022-07-29T13:03:54;32.80;69.40
37460;DHT22;23318;50.966;5.284;2022-07-29T13:06:41;33.20;70.00
37460;DHT22;23318;50.966;5.284;2022-07-29T13:09:10;35.20;68.10
37460;DHT22;23318;50.966;5.284;2022-07-29T13:11:49;37.10;66.50
37460;DHT22;23318;50.966;5.284;2022-07-29T13:14:39;37.20;65.90
37460;DHT22;23318;50.966;5.284;2022-07-29T13:19:43;38.90;64.30
37460;DHT22;23318;50.966;5.284;2022-07-29T13:22:10;39.30;62.80
37460;DHT22;23318;50.966;5.284;2022-07-29T13:27:19;38.20;62.20
37460;DHT22;23318;50.966;5.284;2022-07-29T13:29:45;38.30;62.20
37460;DHT22;23318;50.966;5.284;2022-07-29T13:32:11;38.30;61.40
37460;DHT22;23318;50.966;5.284;2022-07-29T13:34:37;38.80;60.90
37460;DHT22;23318;50.966;5.284;2022-07-29T13:37:03;39.80;60.00
37460;DHT22;23318;50.966;5.284;2022-07-29T13:39:28;39.50;59.00
37460;DHT22;23318;50.966;5.284;2022-07-29T13:41:54;41.10;58.50
37460;DHT22;23318;50.966;5.284;2022-07-29T13:44:20;42.10;58.00
37460;DHT22;23318;50.966;5.284;2022-07-29T13:46:45;41.20;57.70
37460;DHT22;23318;50.966;5.284;2022-07-29T13:49:11;38.70;58.00
37460;DHT22;23318;50.966;5.284;2022-07-29T13:51:37;37.10;59.20
37460;DHT22;23318;50.966;5.284;2022-07-29T13:54:03;37.10;58.40
37460;DHT22;23318;50.966;5.284;2022-07-29T13:56:29;35.20;60.20
37460;DHT22;23318;50.966;5.284;2022-07-29T13:58:55;34.50;60.60
37460;DHT22;23318;50.966;5.284;2022-07-29T14:01:21;34.90;61.40
37460;DHT22;23318;50.966;5.284;2022-07-29T14:03:46;35.90;60.80
37460;DHT22;23318;50.966;5.284;2022-07-29T14:06:12;37.60;59.40
37460;DHT22;23318;50.966;5.284;2022-07-29T14:08:38;37.70;59.70
37460;DHT22;23318;50.966;5.284;2022-07-29T14:11:05;37.70;59.80
37460;DHT22;23318;50.966;5.284;2022-07-29T14:13:30;37.70;60.10
37460;DHT22;23318;50.966;5.284;2022-07-29T14:15:56;35.90;59.70
37460;DHT22;23318;50.966;5.284;2022-07-29T14:18:22;35.40;60.80
37460;DHT22;23318;50.966;5.284;2022-07-29T14:20:48;35.40;60.50
37460;DHT22;23318;50.966;5.284;2022-07-29T14:23:13;34.30;61.40
37460;DHT22;23318;50.966;5.284;2022-07-29T14:25:39;33.00;62.30
37460;DHT22;23318;50.966;5.284;2022-07-29T14:28:04;32.10;63.30
37460;DHT22;23318;50.966;5.284;2022-07-29T14:30:30;31.00;65.10
37460;DHT22;23318;50.966;5.284;2022-07-29T14:32:56;30.30;65.60
37460;DHT22;23318;50.966;5.284;2022-07-29T14:35:21;30.50;65.90
37460;DHT22;23318;50.966;5.284;2022-07-29T14:37:47;31.10;64.60
37460;DHT22;23318;50.966;5.284;2022-07-29T14:40:13;32.50;62.90
37460;DHT22;23318;50.966;5.284;2022-07-29T14:42:39;32.90;63.00
37460;DHT22;23318;50.966;5.284;2022-07-29T14:45:06;32.50;63.50
37460;DHT22;23318;50.966;5.284;2022-07-29T14:47:32;32.10;62.50
37460;DHT22;23318;50.966;5.284;2022-07-29T14:49:57;31.90;63.60
37460;DHT22;23318;50.966;5.284;2022-07-29T14:52:23;31.40;63.20
37460;DHT22;23318;50.966;5.284;2022-07-29T14:54:48;31.10;64.00
37460;DHT22;23318;50.966;5.284;2022-07-29T14:57:14;30.30;65.30
37460;DHT22;23318;50.966;5.284;2022-07-29T14:59:41;30.10;65.90
37460;DHT22;23318;50.966;5.284;2022-07-29T15:02:07;29.80;66.90
37460;DHT22;23318;50.966;5.284;2022-07-29T15:04:32;29.80;66.80
37460;DHT22;23318;50.966;5.284;2022-07-29T15:06:58;31.30;66.20
37460;DHT22;23318;50.966;5.284;2022-07-29T15:09:24;33.80;63.80
37460;DHT22;23318;50.966;5.284;2022-07-29T15:11:49;35.80;61.30
37460;DHT22;23318;50.966;5.284;2022-07-29T15:14:15;35.40;60.40
37460;DHT22;23318;50.966;5.284;2022-07-29T15:16:40;36.50;60.20
37460;DHT22;23318;50.966;5.284;2022-07-29T15:19:08;36.80;59.20
37460;DHT22;23318;50.966;5.284;2022-07-29T15:21:34;35.10;60.10
37460;DHT22;23318;50.966;5.284;2022-07-29T15:23:59;35.80;59.70
37460;DHT22;23318;50.966;5.284;2022-07-29T15:26:25;36.30;59.10
37460;DHT22;23318;50.966;5.284;2022-07-29T15:28:51;36.50;58.40
37460;DHT22;23318;50.966;5.284;2022-07-29T15:31:17;36.90;59.00
37460;DHT22;23318;50.966;5.284;2022-07-29T15:33:44;35.40;58.30
37460;DHT22;23318;50.966;5.284;2022-07-29T15:36:10;34.80;59.40
37460;DHT22;23318;50.966;5.284;2022-07-29T15:38:37;34.10;60.10
37460;DHT22;23318;50.966;5.284;2022-07-29T15:41:06;32.40;60.60
37460;DHT22;23318;50.966;5.284;2022-07-29T15:43:31;32.10;61.50
37460;DHT22;23318;50.966;5.284;2022-07-29T15:45:57;30.40;62.90
37460;DHT22;23318;50.966;5.284;2022-07-29T15:48:41;30.20;63.80
37460;DHT22;23318;50.966;5.284;2022-07-29T15:51:07;29.90;65.00
37460;DHT22;23318;50.966;5.284;2022-07-29T15:53:33;29.80;65.20
37460;DHT22;23318;50.966;5.284;2022-07-29T15:55:58;29.40;64.70
37460;DHT22;23318;50.966;5.284;2022-07-29T15:58:24;29.10;65.40
37460;DHT22;23318;50.966;5.284;2022-07-29T16:00:50;29.00;65.60
37460;DHT22;23318;50.966;5.284;2022-07-29T16:03:15;28.80;66.00
37460;DHT22;23318;50.966;5.284;2022-07-29T16:05:41;28.70;66.30
37460;DHT22;23318;50.966;5.284;2022-07-29T16:08:07;28.70;66.10
37460;DHT22;23318;50.966;5.284;2022-07-29T16:10:33;28.90;66.70
37460;DHT22;23318;50.966;5.284;2022-07-29T16:12:59;28.80;66.50
37460;DHT22;23318;50.966;5.284;2022-07-29T16:15:24;28.00;66.70
37460;DHT22;23318;50.966;5.284;2022-07-29T16:17:50;28.20;66.70
37460;DHT22;23318;50.966;5.284;2022-07-29T16:20:15;28.10;67.00
37460;DHT22;23318;50.966;5.284;2022-07-29T16:22:41;27.80;66.40
37460;DHT22;23318;50.966;5.284;2022-07-29T16:25:07;27.60;67.30
37460;DHT22;23318;50.966;5.284;2022-07-29T16:27:33;27.70;67.50